Portada
METAR-TAF:

METAR-TAF

Aeroports :

Valença, França

latitud: 44-54-58N, longitud: 4-58-06E, altitud: 160 m

Observació

L'informe es va fer fa 2 hores i 58 minuts, a les 18:00 UTC
Vent 3 kt del Est/Nord-Est
Temperatura 1°C
Humitat 80%
Pressió 1004 hPa
Visibilitat 10 km o més
sense núvols per sota de 1500 mi sense presència de cumulonimbus.

METAR: LFLU 221800Z AUTO 06003KT CAVOK 01/M02 Q1004

Hora: 21:58 (20:58 UTC)


TAF: manca

Observacions i pronòstics meteorològics de més de 4000 aeroports (METAR i TAF).

Les estacions disponibles són els punts grocs i vermells al mapa.

Posi el ratolí al punt desitjat per veure el nom de l'estació.

Feu clic per veure les observacions i els pronòstics meteorològics.

Per canviar el mapa: feu clic els botons verds amb una creu de color negre per apropar; al botó verd amb un guió per allunyar la imatge; o en les fletxes verdes per a mapes adjacents.


METAR-TAF: